Time;durP1;ratioP1;P1;durP2;ratioP2;P2;SDS_P1;SDS_P2;PMS_P1;PMS_P2;Temp;Humidity;BMP_temperature;BMP_pressure;BME280_temperature;BME280_humidity;BME280_pressure;Samples;Min_cycle;Max_cycle;Signal;HPM_P1;HPM_P2
2022/03/10 00:00:27;;;;;;;19.13;13.82;;;;;;;;;;5096581;28;20294;-67
2022/03/10 00:02:54;;;;;;;17.67;12.20;;;;;;;;;;5096381;28;20195;-68
2022/03/10 00:05:21;;;;;;;14.20;11.77;;;;;;;;;;5096784;28;20194;-67
2022/03/10 00:07:50;;;;;;;17.88;12.45;;;;;;;;;;5096208;28;20654;-67
2022/03/10 00:10:17;;;;;;;16.00;11.93;;;;;;;;;;5095972;28;20195;-67
2022/03/10 00:12:48;;;;;;;18.30;12.48;;;;;;;;;;5096550;28;20226;-68
2022/03/10 00:15:16;;;;;;;16.88;11.45;;;;;;;;;;5096045;28;20281;-68
2022/03/10 00:17:43;;;;;;;16.80;10.68;;;;;;;;;;5096091;28;20229;-66
2022/03/10 00:20:12;;;;;;;15.90;11.68;;;;;;;;;;5096219;28;20194;-67
2022/03/10 00:22:46;;;;;;;15.77;11.70;;;;;;;;;;5096199;28;20219;-67
2022/03/10 00:25:15;;;;;;;14.23;11.05;;;;;;;;;;5095841;28;20240;-66
2022/03/10 00:27:42;;;;;;;16.73;12.65;;;;;;;;;;5096691;28;20236;-67
2022/03/10 00:30:10;;;;;;;18.90;12.30;;;;;;;;;;5096028;28;20211;-67
2022/03/10 00:32:44;;;;;;;14.75;11.18;;;;;;;;;;5094909;28;20211;-67
2022/03/10 00:35:12;;;;;;;17.20;11.40;;;;;;;;;;5095612;28;20198;-66
2022/03/10 00:37:39;;;;;;;19.35;12.75;;;;;;;;;;5096054;28;20193;-67
2022/03/10 00:40:07;;;;;;;18.23;11.70;;;;;;;;;;5096323;28;20734;-67
2022/03/10 00:42:39;;;;;;;13.77;11.77;;;;;;;;;;5096185;28;20240;-67
2022/03/10 00:45:08;;;;;;;18.02;11.90;;;;;;;;;;5095394;28;20206;-67
2022/03/10 00:47:35;;;;;;;14.52;11.55;;;;;;;;;;5096012;28;20197;-65
2022/03/10 00:50:03;;;;;;;17.35;10.90;;;;;;;;;;5095262;28;20200;-66
2022/03/10 00:52:30;;;;;;;17.77;11.45;;;;;;;;;;5095670;28;20197;-66
2022/03/10 00:54:58;;;;;;;17.38;12.73;;;;;;;;;;5095568;28;20243;-66
2022/03/10 00:57:25;;;;;;;15.35;11.05;;;;;;;;;;5095491;28;20555;-67
2022/03/10 00:59:54;;;;;;;15.60;10.57;;;;;;;;;;5095791;28;20226;-67
2022/03/10 01:02:21;;;;;;;16.98;11.50;;;;;;;;;;5095153;28;20690;-66
2022/03/10 01:04:48;;;;;;;15.73;11.40;;;;;;;;;;5095262;28;20221;-69
2022/03/10 01:07:16;;;;;;;24.77;12.68;;;;;;;;;;5094801;28;20233;-67
2022/03/10 01:09:43;;;;;;;15.95;10.90;;;;;;;;;;5094987;28;20189;-66
2022/03/10 01:12:11;;;;;;;17.75;12.98;;;;;;;;;;5094660;28;20687;-66
2022/03/10 01:14:38;;;;;;;14.90;11.73;;;;;;;;;;5094731;28;20194;-66
2022/03/10 01:17:07;;;;;;;15.02;10.75;;;;;;;;;;5095121;28;20285;-67
2022/03/10 01:19:34;;;;;;;14.20;10.20;;;;;;;;;;5094712;28;20714;-66
2022/03/10 01:22:01;;;;;;;15.65;11.20;;;;;;;;;;5094443;28;20249;-68
2022/03/10 01:24:28;;;;;;;20.42;11.10;;;;;;;;;;5094832;28;20232;-68
2022/03/10 01:26:55;;;;;;;15.73;10.93;;;;;;;;;;5094457;28;20280;-68
2022/03/10 01:29:23;;;;;;;14.75;11.70;;;;;;;;;;5094817;28;20204;-66
2022/03/10 01:31:50;;;;;;;13.77;11.18;;;;;;;;;;5094378;28;20204;-67
2022/03/10 01:34:19;;;;;;;16.20;12.20;;;;;;;;;;5094696;28;20197;-67
2022/03/10 01:36:46;;;;;;;18.10;11.43;;;;;;;;;;5094564;28;20232;-66
2022/03/10 01:39:13;;;;;;;19.38;11.20;;;;;;;;;;5094280;28;20719;-67
2022/03/10 01:41:41;;;;;;;19.35;12.27;;;;;;;;;;5094039;28;20239;-66
2022/03/10 01:44:09;;;;;;;23.35;11.77;;;;;;;;;;5094897;28;20223;-67
2022/03/10 01:46:36;;;;;;;13.15;11.13;;;;;;;;;;5094569;28;20204;-67
2022/03/10 01:49:05;;;;;;;21.70;11.45;;;;;;;;;;5094136;28;20195;-67
2022/03/10 01:51:34;;;;;;;16.30;11.07;;;;;;;;;;5094271;28;20197;-66
2022/03/10 01:54:02;;;;;;;16.83;11.75;;;;;;;;;;5094021;28;20194;-66
2022/03/10 01:56:29;;;;;;;16.08;10.77;;;;;;;;;;5094280;28;20631;-67
2022/03/10 01:58:56;;;;;;;18.10;10.88;;;;;;;;;;5094480;28;20242;-66
2022/03/10 02:01:24;;;;;;;16.02;10.90;;;;;;;;;;5093870;28;20628;-67
2022/03/10 02:03:51;;;;;;;21.10;12.63;;;;;;;;;;5094255;28;20228;-67
2022/03/10 02:06:18;;;;;;;14.55;10.82;;;;;;;;;;5093811;28;20208;-67
2022/03/10 02:11:32;;;;;;;20.40;12.00;;;;;;;;;;5094008;28;20278;-67
2022/03/10 02:17:19;;;;;;;17.98;11.45;;;;;;;;;;5094884;28;20194;-66
2022/03/10 02:19:32;;;;;;;18.23;12.82;;;;;;;;;;5093791;28;20216;-66
2022/03/10 02:21:59;;;;;;;19.13;12.82;;;;;;;;;;5093559;28;20260;-66
2022/03/10 02:24:28;;;;;;;20.00;14.32;;;;;;;;;;5093691;28;20668;-67
2022/03/10 02:26:55;;;;;;;18.23;12.90;;;;;;;;;;5093877;28;20280;-66
2022/03/10 02:29:22;;;;;;;23.88;13.68;;;;;;;;;;5093811;28;20202;-67
2022/03/10 02:31:50;;;;;;;20.40;13.75;;;;;;;;;;5093437;28;20681;-67
2022/03/10 02:34:17;;;;;;;25.73;14.55;;;;;;;;;;5093612;28;20220;-66
2022/03/10 02:36:44;;;;;;;19.40;13.43;;;;;;;;;;5093807;28;20236;-68
2022/03/10 02:39:11;;;;;;;17.80;12.50;;;;;;;;;;5093521;28;20195;-67
2022/03/10 02:41:40;;;;;;;19.58;14.73;;;;;;;;;;5093674;28;20256;-66
2022/03/10 02:44:07;;;;;;;20.95;13.68;;;;;;;;;;5093809;28;20198;-67
2022/03/10 02:46:34;;;;;;;18.90;13.60;;;;;;;;;;5093807;28;20233;-67
2022/03/10 02:49:02;;;;;;;21.48;13.48;;;;;;;;;;5093416;28;20682;-67
2022/03/10 02:51:29;;;;;;;16.75;12.48;;;;;;;;;;5093739;28;20311;-67
2022/03/10 02:53:56;;;;;;;17.58;13.18;;;;;;;;;;5093631;28;20559;-67
2022/03/10 02:56:23;;;;;;;18.83;13.23;;;;;;;;;;5095796;28;20284;-67
2022/03/10 02:58:52;;;;;;;19.98;12.68;;;;;;;;;;5097727;28;20193;-67
2022/03/10 03:01:19;;;;;;;18.52;12.38;;;;;;;;;;5097664;28;20568;-67
2022/03/10 03:03:46;;;;;;;17.02;11.75;;;;;;;;;;5097562;28;20193;-67
2022/03/10 03:06:13;;;;;;;14.30;10.65;;;;;;;;;;5097571;28;20194;-66
2022/03/10 03:08:41;;;;;;;17.90;12.43;;;;;;;;;;5097529;28;20189;-67
2022/03/10 03:11:08;;;;;;;14.88;11.40;;;;;;;;;;5097632;28;20229;-67
2022/03/10 03:13:35;;;;;;;17.60;11.95;;;;;;;;;;5097471;28;20553;-67
2022/03/10 03:16:04;;;;;;;14.27;11.75;;;;;;;;;;5097546;28;20200;-69
2022/03/10 03:18:31;;;;;;;14.82;11.50;;;;;;;;;;5097220;28;20566;-67
2022/03/10 03:20:58;;;;;;;20.58;13.13;;;;;;;;;;5097570;28;20723;-68
2022/03/10 03:23:26;;;;;;;14.00;11.18;;;;;;;;;;5097279;28;20259;-67
2022/03/10 03:25:59;;;;;;;16.35;11.50;;;;;;;;;;5097377;28;20247;-67
2022/03/10 03:28:26;;;;;;;19.85;11.77;;;;;;;;;;5097528;28;20190;-67
2022/03/10 03:30:54;;;;;;;16.23;12.40;;;;;;;;;;5097224;28;20281;-67
2022/03/10 03:33:22;;;;;;;15.68;11.55;;;;;;;;;;5096860;28;20537;-67
2022/03/10 03:35:49;;;;;;;15.57;11.73;;;;;;;;;;5096893;28;20651;-67
2022/03/10 03:38:17;;;;;;;17.27;12.20;;;;;;;;;;5096802;28;20284;-66
2022/03/10 03:40:44;;;;;;;15.10;11.48;;;;;;;;;;5097298;28;20193;-66
2022/03/10 03:43:11;;;;;;;18.88;12.25;;;;;;;;;;5096505;28;20213;-67
2022/03/10 03:45:38;;;;;;;16.23;11.60;;;;;;;;;;5096671;28;20669;-67
2022/03/10 03:48:06;;;;;;;17.08;11.50;;;;;;;;;;5096505;28;20288;-67
2022/03/10 03:50:35;;;;;;;18.20;12.65;;;;;;;;;;5096778;28;20284;-67
2022/03/10 03:53:02;;;;;;;16.75;11.48;;;;;;;;;;5096786;28;20281;-67
2022/03/10 03:55:29;;;;;;;13.90;11.13;;;;;;;;;;5096474;28;20204;-68
2022/03/10 03:57:56;;;;;;;17.00;11.55;;;;;;;;;;5096699;28;20281;-66
2022/03/10 04:00:24;;;;;;;17.25;11.75;;;;;;;;;;5096724;28;20191;-67
2022/03/10 04:02:51;;;;;;;14.25;10.73;;;;;;;;;;5096178;28;20219;-67
2022/03/10 04:05:18;;;;;;;14.98;11.30;;;;;;;;;;5096622;28;20247;-67
2022/03/10 04:07:47;;;;;;;16.35;11.60;;;;;;;;;;5096548;28;20662;-68
2022/03/10 04:10:14;;;;;;;15.90;11.18;;;;;;;;;;5096301;28;20276;-66
2022/03/10 04:12:41;;;;;;;15.15;11.88;;;;;;;;;;5096647;28;20288;-66
2022/03/10 04:15:09;;;;;;;20.35;11.98;;;;;;;;;;5096724;28;20199;-66
2022/03/10 04:17:36;;;;;;;18.17;11.80;;;;;;;;;;5096054;28;20665;-67
2022/03/10 04:20:08;;;;;;;14.93;10.98;;;;;;;;;;5096166;28;20644;-66
2022/03/10 04:22:35;;;;;;;17.00;11.43;;;;;;;;;;5095967;28;20210;-67
2022/03/10 04:25:05;;;;;;;15.27;11.45;;;;;;;;;;5096194;28;20272;-67
2022/03/10 04:27:32;;;;;;;20.98;13.52;;;;;;;;;;5097066;28;20215;-67
2022/03/10 04:29:59;;;;;;;14.98;11.77;;;;;;;;;;5095761;28;20233;-67
2022/03/10 04:32:27;;;;;;;16.88;12.27;;;;;;;;;;5095694;28;20659;-67
2022/03/10 04:34:54;;;;;;;20.30;12.50;;;;;;;;;;5095663;28;20289;-67
2022/03/10 04:37:21;;;;;;;17.67;12.25;;;;;;;;;;5095638;28;20194;-67
2022/03/10 04:39:48;;;;;;;17.60;12.77;;;;;;;;;;5095720;28;20673;-67
2022/03/10 04:42:17;;;;;;;16.25;12.07;;;;;;;;;;5095901;28;20304;-68
2022/03/10 04:44:44;;;;;;;18.77;11.95;;;;;;;;;;5095868;28;20199;-67
2022/03/10 04:47:11;;;;;;;20.98;13.35;;;;;;;;;;5095843;28;20204;-67
2022/03/10 04:49:38;;;;;;;20.15;13.60;;;;;;;;;;5095409;28;20194;-68
2022/03/10 04:52:06;;;;;;;20.70;12.77;;;;;;;;;;5095736;28;20288;-67
2022/03/10 04:54:33;;;;;;;14.77;11.77;;;;;;;;;;5095868;28;20199;-67
2022/03/10 04:57:01;;;;;;;17.85;13.23;;;;;;;;;;5095647;28;20194;-67
2022/03/10 04:59:31;;;;;;;22.25;12.43;;;;;;;;;;5095495;28;20195;-67
2022/03/10 05:01:58;;;;;;;17.88;11.73;;;;;;;;;;5095831;28;20284;-67
2022/03/10 05:04:25;;;;;;;15.02;11.70;;;;;;;;;;5095539;28;20665;-67
2022/03/10 05:06:53;;;;;;;17.23;12.90;;;;;;;;;;5095424;28;20228;-66
2022/03/10 05:09:20;;;;;;;17.52;12.18;;;;;;;;;;5095318;28;20204;-67
2022/03/10 05:11:47;;;;;;;16.40;13.23;;;;;;;;;;5095833;28;20346;-67
2022/03/10 05:14:14;;;;;;;20.02;13.50;;;;;;;;;;5094838;28;20726;-67
2022/03/10 05:16:43;;;;;;;17.85;12.55;;;;;;;;;;5095260;28;20193;-67
2022/03/10 05:19:10;;;;;;;18.77;12.70;;;;;;;;;;5094219;28;20205;-66
2022/03/10 05:21:37;;;;;;;20.50;13.75;;;;;;;;;;5094791;28;20225;-66
2022/03/10 05:24:05;;;;;;;18.30;12.25;;;;;;;;;;5094759;28;20682;-66
2022/03/10 05:26:32;;;;;;;19.10;13.30;;;;;;;;;;5094754;28;20189;-65
2022/03/10 05:28:59;;;;;;;19.90;13.65;;;;;;;;;;5094977;28;20220;-66
2022/03/10 05:31:27;;;;;;;19.35;12.77;;;;;;;;;;5094377;28;20196;-66
2022/03/10 05:33:55;;;;;;;19.70;13.18;;;;;;;;;;5094674;28;20647;-66
2022/03/10 05:36:23;;;;;;;23.60;13.23;;;;;;;;;;5094410;28;20219;-68
2022/03/10 05:38:50;;;;;;;21.38;13.50;;;;;;;;;;5094175;28;20741;-66
2022/03/10 05:41:17;;;;;;;19.75;13.52;;;;;;;;;;5094663;28;20204;-65
2022/03/10 05:43:44;;;;;;;18.35;13.82;;;;;;;;;;5094773;28;20259;-66
2022/03/10 05:46:12;;;;;;;17.08;11.57;;;;;;;;;;5094525;28;20242;-65
2022/03/10 05:48:39;;;;;;;21.70;13.75;;;;;;;;;;5094628;28;20196;-66
2022/03/10 05:51:07;;;;;;;23.58;13.43;;;;;;;;;;5094031;28;20197;-66
2022/03/10 05:53:35;;;;;;;18.85;13.43;;;;;;;;;;5094244;28;20288;-65
2022/03/10 05:56:02;;;;;;;17.00;12.40;;;;;;;;;;5094037;28;20216;-66
2022/03/10 05:58:29;;;;;;;19.58;13.13;;;;;;;;;;5094247;28;20292;-66
2022/03/10 06:00:56;;;;;;;19.63;13.10;;;;;;;;;;5094211;28;20555;-66
2022/03/10 06:03:23;;;;;;;27.38;13.45;;;;;;;;;;5094405;28;20294;-66
2022/03/10 06:05:51;;;;;;;17.85;13.02;;;;;;;;;;5093711;28;20228;-67
2022/03/10 06:08:19;;;;;;;20.80;14.43;;;;;;;;;;5094326;28;20226;-66
2022/03/10 06:10:47;;;;;;;17.00;13.10;;;;;;;;;;5093974;28;20399;-65
2022/03/10 06:13:14;;;;;;;19.38;13.48;;;;;;;;;;5094021;28;20215;-66
2022/03/10 06:15:41;;;;;;;25.20;12.90;;;;;;;;;;5093697;28;20666;-66
2022/03/10 06:18:09;;;;;;;17.55;13.85;;;;;;;;;;5094038;28;20190;-67
2022/03/10 06:20:36;;;;;;;17.13;12.50;;;;;;;;;;5093676;28;20197;-66
2022/03/10 06:23:03;;;;;;;19.48;13.57;;;;;;;;;;5093914;28;20232;-71
2022/03/10 06:25:32;;;;;;;17.25;12.55;;;;;;;;;;5094114;28;20289;-66
2022/03/10 06:27:59;;;;;;;26.65;14.23;;;;;;;;;;5094692;28;20640;-67
2022/03/10 06:30:26;;;;;;;21.40;12.77;;;;;;;;;;5092596;28;20198;-66
2022/03/10 06:32:53;;;;;;;22.33;13.50;;;;;;;;;;5094114;28;20229;-67
2022/03/10 06:35:21;;;;;;;22.27;14.10;;;;;;;;;;5093837;28;20623;-67
2022/03/10 06:37:48;;;;;;;22.83;14.27;;;;;;;;;;5093491;28;20189;-67
2022/03/10 06:40:15;;;;;;;19.20;12.98;;;;;;;;;;5093199;28;20194;-67
2022/03/10 06:42:44;;;;;;;27.70;13.35;;;;;;;;;;5093699;28;20197;-67
2022/03/10 06:45:11;;;;;;;16.83;13.38;;;;;;;;;;5093418;28;20196;-66
2022/03/10 06:47:40;;;;;;;16.83;13.05;;;;;;;;;;5093368;28;20233;-66
2022/03/10 06:50:08;;;;;;;16.92;13.85;;;;;;;;;;5093540;28;20198;-67
2022/03/10 06:52:35;;;;;;;19.13;13.68;;;;;;;;;;5093313;28;20223;-67
2022/03/10 06:55:03;;;;;;;22.65;13.32;;;;;;;;;;5093532;28;20200;-66
2022/03/10 06:57:30;;;;;;;28.67;15.52;;;;;;;;;;5093580;28;20212;-67
2022/03/10 06:59:58;;;;;;;28.77;14.23;;;;;;;;;;5093117;28;20667;-66
2022/03/10 07:02:26;;;;;;;22.52;13.50;;;;;;;;;;5093218;28;20219;-67
2022/03/10 07:04:53;;;;;;;19.23;13.43;;;;;;;;;;5093435;28;20217;-66
2022/03/10 07:07:20;;;;;;;19.35;13.80;;;;;;;;;;5093463;28;20612;-67
2022/03/10 07:09:47;;;;;;;17.92;12.70;;;;;;;;;;5093382;28;20281;-66
2022/03/10 07:12:14;;;;;;;20.40;13.88;;;;;;;;;;5093142;28;20751;-67
2022/03/10 07:14:42;;;;;;;21.08;13.05;;;;;;;;;;5093456;28;20281;-67
2022/03/10 07:17:10;;;;;;;20.98;13.48;;;;;;;;;;5093360;28;20631;-66
2022/03/10 07:19:37;;;;;;;20.48;15.07;;;;;;;;;;5093791;28;20277;-67
2022/03/10 07:22:05;;;;;;;20.40;13.23;;;;;;;;;;5092922;28;20648;-67
2022/03/10 07:24:32;;;;;;;19.23;14.52;;;;;;;;;;5093091;28;20253;-67
2022/03/10 07:26:59;;;;;;;18.45;13.60;;;;;;;;;;5093306;28;20297;-67
2022/03/10 07:29:27;;;;;;;20.13;13.38;;;;;;;;;;5094026;28;20623;-67
2022/03/10 07:31:54;;;;;;;19.83;14.50;;;;;;;;;;5092899;28;20201;-66
2022/03/10 07:34:23;;;;;;;19.52;12.98;;;;;;;;;;5093244;28;20270;-66
2022/03/10 07:36:50;;;;;;;19.98;13.85;;;;;;;;;;5093164;28;20679;-67
2022/03/10 07:39:17;;;;;;;20.63;13.07;;;;;;;;;;5092923;28;20193;-67
2022/03/10 07:41:45;;;;;;;17.80;12.02;;;;;;;;;;5094517;28;20196;-66
2022/03/10 07:44:12;;;;;;;17.75;12.48;;;;;;;;;;5096889;28;20401;-66
2022/03/10 07:46:39;;;;;;;19.85;11.90;;;;;;;;;;5097065;28;20592;-67
2022/03/10 07:49:08;;;;;;;20.10;13.23;;;;;;;;;;5096886;28;20240;-67
2022/03/10 07:51:38;;;;;;;23.08;12.52;;;;;;;;;;5096387;28;20194;-67
2022/03/10 07:54:05;;;;;;;19.15;12.85;;;;;;;;;;5096997;28;20198;-67
2022/03/10 07:56:32;;;;;;;15.93;12.38;;;;;;;;;;5096899;28;20196;-68
2022/03/10 07:58:59;;;;;;;21.10;13.43;;;;;;;;;;5096588;28;20226;-67
2022/03/10 08:01:26;;;;;;;19.85;13.70;;;;;;;;;;5096550;28;20193;-66
2022/03/10 08:03:54;;;;;;;20.63;14.27;;;;;;;;;;5096572;28;20304;-67
2022/03/10 08:06:21;;;;;;;21.80;12.50;;;;;;;;;;5096206;28;20289;-67
2022/03/10 08:08:50;;;;;;;16.25;11.80;;;;;;;;;;5096234;28;20201;-66
2022/03/10 08:11:17;;;;;;;17.95;12.48;;;;;;;;;;5096144;28;20227;-67
2022/03/10 08:13:45;;;;;;;20.17;13.18;;;;;;;;;;5096930;28;20197;-67
2022/03/10 08:16:12;;;;;;;15.75;12.13;;;;;;;;;;5096003;28;20302;-66
2022/03/10 08:18:40;;;;;;;18.85;10.68;;;;;;;;;;5096430;28;20743;-66
2022/03/10 08:21:07;;;;;;;18.48;12.02;;;;;;;;;;5096197;28;20609;-67
2022/03/10 08:23:34;;;;;;;17.85;12.15;;;;;;;;;;5096046;28;20228;-67
2022/03/10 08:26:03;;;;;;;18.08;11.70;;;;;;;;;;5095610;28;20689;-67
2022/03/10 08:28:32;;;;;;;14.95;11.70;;;;;;;;;;5095689;28;20208;-66
2022/03/10 08:30:59;;;;;;;26.02;15.85;;;;;;;;;;5095996;28;20720;-67
2022/03/10 08:33:26;;;;;;;22.33;13.02;;;;;;;;;;5095632;28;20195;-67
2022/03/10 08:35:53;;;;;;;18.45;12.27;;;;;;;;;;5095709;28;20284;-66
2022/03/10 08:38:21;;;;;;;20.25;12.57;;;;;;;;;;5095676;28;20243;-66
2022/03/10 08:40:48;;;;;;;22.42;11.75;;;;;;;;;;5095487;28;20621;-66
2022/03/10 08:43:16;;;;;;;17.48;12.48;;;;;;;;;;5095698;28;20606;-66
2022/03/10 08:45:44;;;;;;;17.70;12.77;;;;;;;;;;5095503;28;20675;-67
2022/03/10 08:48:11;;;;;;;14.93;11.30;;;;;;;;;;5095351;28;20254;-66
2022/03/10 08:50:39;;;;;;;20.73;13.82;;;;;;;;;;5095653;28;20220;-65
2022/03/10 08:53:06;;;;;;;15.75;11.45;;;;;;;;;;5094153;28;20194;-66
2022/03/10 08:55:33;;;;;;;16.65;12.25;;;;;;;;;;5096303;28;20289;-66
2022/03/10 08:58:00;;;;;;;15.82;11.73;;;;;;;;;;5095448;28;20291;-66
2022/03/10 09:00:29;;;;;;;13.02;10.93;;;;;;;;;;5095449;28;20195;-67
2022/03/10 09:02:56;;;;;;;17.73;12.68;;;;;;;;;;5095020;28;20287;-66
2022/03/10 09:05:24;;;;;;;19.70;12.70;;;;;;;;;;5095151;28;20588;-67
2022/03/10 09:07:51;;;;;;;15.00;11.98;;;;;;;;;;5095237;28;20719;-66
2022/03/10 09:10:18;;;;;;;15.93;11.77;;;;;;;;;;5095130;28;20285;-66
2022/03/10 09:12:45;;;;;;;19.27;13.07;;;;;;;;;;5095526;28;20188;-67
2022/03/10 09:15:13;;;;;;;18.67;12.00;;;;;;;;;;5094610;28;20273;-67
2022/03/10 09:17:41;;;;;;;16.85;12.98;;;;;;;;;;5094532;28;20200;-67
2022/03/10 09:20:11;;;;;;;17.15;11.90;;;;;;;;;;5095935;28;20256;-67
2022/03/10 09:22:38;;;;;;;18.63;11.70;;;;;;;;;;5095019;28;20668;-67
2022/03/10 09:25:08;;;;;;;16.40;11.63;;;;;;;;;;5094656;28;20633;-66
2022/03/10 09:27:35;;;;;;;16.20;11.27;;;;;;;;;;5094774;28;20192;-67
2022/03/10 09:30:02;;;;;;;17.83;11.40;;;;;;;;;;5095059;28;20205;-67
2022/03/10 09:32:34;;;;;;;17.92;12.10;;;;;;;;;;5094448;28;20199;-67
2022/03/10 09:35:03;;;;;;;24.27;12.55;;;;;;;;;;5095048;28;20187;-67
2022/03/10 09:37:30;;;;;;;17.25;10.70;;;;;;;;;;5094804;28;20570;-67
2022/03/10 09:39:58;;;;;;;17.80;12.48;;;;;;;;;;5094905;28;20283;-67
2022/03/10 09:42:27;;;;;;;19.20;12.40;;;;;;;;;;5094278;28;20200;-66
2022/03/10 09:44:54;;;;;;;17.38;13.52;;;;;;;;;;5094554;28;20273;-67
2022/03/10 09:47:21;;;;;;;27.80;15.70;;;;;;;;;;5094445;28;20304;-66
2022/03/10 09:49:49;;;;;;;17.50;12.48;;;;;;;;;;5094626;28;20290;-66
2022/03/10 09:52:18;;;;;;;19.98;13.32;;;;;;;;;;5094073;28;20244;-66
2022/03/10 09:54:45;;;;;;;17.02;12.80;;;;;;;;;;5094434;28;20676;-66
2022/03/10 09:57:16;;;;;;;20.25;12.90;;;;;;;;;;5094271;28;20294;-67
2022/03/10 09:59:50;;;;;;;21.55;12.77;;;;;;;;;;5095009;28;20565;-67
2022/03/10 10:02:18;;;;;;;18.05;11.73;;;;;;;;;;5094109;28;20286;-66
2022/03/10 10:04:46;;;;;;;19.00;12.02;;;;;;;;;;5094046;28;20674;-67
2022/03/10 10:07:14;;;;;;;31.05;14.88;;;;;;;;;;5093882;28;20201;-67
2022/03/10 10:09:46;;;;;;;17.83;15.00;;;;;;;;;;5093793;28;20299;-66
2022/03/10 10:12:15;;;;;;;19.45;13.80;;;;;;;;;;5094024;28;20306;-67
2022/03/10 10:14:43;;;;;;;18.42;12.27;;;;;;;;;;5093459;28;20240;-67
2022/03/10 10:17:11;;;;;;;15.43;12.27;;;;;;;;;;5093773;28;20239;-66
2022/03/10 10:19:40;;;;;;;19.70;12.57;;;;;;;;;;5093475;28;20614;-67
2022/03/10 10:22:11;;;;;;;19.50;12.27;;;;;;;;;;5094033;28;20212;-67
2022/03/10 10:24:38;;;;;;;17.77;12.43;;;;;;;;;;5093335;28;20565;-67
2022/03/10 10:27:18;;;;;;;20.10;12.65;;;;;;;;;;5093976;28;20198;-67
2022/03/10 10:29:49;;;;;;;19.48;13.13;;;;;;;;;;5093212;28;20203;-66
2022/03/10 10:32:27;;;;;;;21.33;13.93;;;;;;;;;;5093482;28;20200;-66
2022/03/10 10:35:08;;;;;;;17.38;13.23;;;;;;;;;;5093673;28;20284;-66
2022/03/10 10:37:36;;;;;;;17.90;12.50;;;;;;;;;;5093737;28;20300;-67
2022/03/10 10:40:05;;;;;;;21.67;12.90;;;;;;;;;;5093313;28;20193;-67
2022/03/10 10:42:34;;;;;;;19.73;12.13;;;;;;;;;;5093761;28;20203;-68
2022/03/10 10:45:01;;;;;;;18.27;13.13;;;;;;;;;;5093175;28;20565;-67
2022/03/10 10:47:29;;;;;;;18.60;13.20;;;;;;;;;;5093562;28;20443;-66
2022/03/10 10:49:57;;;;;;;18.92;15.07;;;;;;;;;;5093133;28;20444;-65
2022/03/10 10:52:25;;;;;;;16.47;12.17;;;;;;;;;;5094112;28;20549;-66
2022/03/10 10:55:04;;;;;;;22.30;12.43;;;;;;;;;;5093415;28;20512;-66
2022/03/10 10:57:34;;;;;;;19.93;12.03;;;;;;;;;;5094286;28;20885;-66
2022/03/10 11:00:07;;;;;;;16.15;11.85;;;;;;;;;;5093212;28;20447;-67
2022/03/10 11:02:36;;;;;;;15.45;11.90;;;;;;;;;;5093663;28;20188;-67
2022/03/10 11:05:03;;;;;;;15.83;11.33;;;;;;;;;;5092863;28;20228;-66
2022/03/10 11:07:33;;;;;;;16.67;12.33;;;;;;;;;;5093129;28;20538;-67
2022/03/10 11:10:03;;;;;;;21.27;11.70;;;;;;;;;;5093253;28;20443;-67
2022/03/10 11:12:30;;;;;;;13.30;11.00;;;;;;;;;;5093441;28;20557;-67
2022/03/10 11:14:57;;;;;;;16.47;11.03;;;;;;;;;;5093302;28;20476;-66
2022/03/10 11:17:26;;;;;;;15.73;12.17;;;;;;;;;;5095687;28;20471;-66
2022/03/10 11:19:56;;;;;;;15.90;11.37;;;;;;;;;;5097480;28;20435;-67
2022/03/10 11:22:29;;;;;;;13.80;11.43;;;;;;;;;;5097365;28;20508;-67
2022/03/10 11:25:09;;;;;;;16.27;10.80;;;;;;;;;;5097187;28;20494;-67
2022/03/10 11:27:44;;;;;;;17.50;11.20;;;;;;;;;;5096869;28;20510;-67
2022/03/10 11:30:12;;;;;;;15.07;10.30;;;;;;;;;;5097180;28;20522;-67
2022/03/10 11:32:41;;;;;;;12.43;10.80;;;;;;;;;;5097416;28;20439;-67
2022/03/10 11:35:08;;;;;;;15.33;11.40;;;;;;;;;;5097010;28;20534;-67
2022/03/10 11:37:52;;;;;;;14.63;11.23;;;;;;;;;;5096722;28;20439;-67
2022/03/10 11:40:20;;;;;;;14.07;10.00;;;;;;;;;;5096968;28;20448;-67
2022/03/10 11:42:47;;;;;;;13.53;9.90;;;;;;;;;;5096976;28;20443;-67
2022/03/10 11:45:17;;;;;;;11.77;9.33;;;;;;;;;;5096789;28;20467;-66
2022/03/10 11:47:46;;;;;;;10.27;8.83;;;;;;;;;;5096539;28;21008;-67
2022/03/10 11:50:29;;;;;;;8.80;7.90;;;;;;;;;;5096763;28;20443;-66
2022/03/10 11:53:00;;;;;;;13.00;8.03;;;;;;;;;;5096713;28;20946;-67
2022/03/10 11:55:39;;;;;;;9.20;7.80;;;;;;;;;;5096145;28;20447;-68
2022/03/10 11:58:07;;;;;;;9.20;8.13;;;;;;;;;;5096626;28;20428;-67
2022/03/10 12:00:52;;;;;;;12.60;8.77;;;;;;;;;;5096490;28;20435;-67
2022/03/10 12:03:21;;;;;;;10.77;7.47;;;;;;;;;;5096018;28;20526;-66
2022/03/10 12:05:52;;;;;;;9.73;7.03;;;;;;;;;;5096019;28;20573;-68
2022/03/10 12:08:26;;;;;;;12.53;6.53;;;;;;;;;;5096642;28;20809;-67
2022/03/10 12:10:53;;;;;;;10.10;7.77;;;;;;;;;;5096059;28;20485;-66
2022/03/10 12:13:28;;;;;;;8.00;7.00;;;;;;;;;;5096024;28;20957;-67
2022/03/10 12:15:55;;;;;;;8.97;7.63;;;;;;;;;;5096020;28;21013;-67
2022/03/10 12:18:25;;;;;;;12.67;8.40;;;;;;;;;;5096284;28;20440;-67
2022/03/10 12:20:57;;;;;;;9.10;7.60;;;;;;;;;;5095612;28;20536;-67
2022/03/10 12:23:26;;;;;;;12.10;7.67;;;;;;;;;;5096659;28;20428;-68
2022/03/10 12:26:00;;;;;;;12.60;8.00;;;;;;;;;;5096098;28;20507;-67
2022/03/10 12:28:32;;;;;;;16.83;9.40;;;;;;;;;;5094423;28;20428;-66
2022/03/10 12:31:07;;;;;;;9.30;7.40;;;;;;;;;;5095907;28;20446;-67
2022/03/10 12:33:36;;;;;;;10.57;7.17;;;;;;;;;;5095782;28;20434;-66
2022/03/10 12:36:04;;;;;;;9.80;8.00;;;;;;;;;;5095034;28;20484;-66
2022/03/10 12:38:41;;;;;;;9.53;7.83;;;;;;;;;;5095242;28;20922;-68
2022/03/10 12:41:09;;;;;;;8.70;7.10;;;;;;;;;;5094864;28;20443;-68
2022/03/10 12:43:36;;;;;;;9.43;7.30;;;;;;;;;;5095409;28;20444;-68
2022/03/10 12:46:04;;;;;;;15.83;8.80;;;;;;;;;;5094981;28;21004;-67
2022/03/10 12:48:35;;;;;;;10.67;6.50;;;;;;;;;;5095044;28;20944;-66
2022/03/10 12:51:04;;;;;;;9.50;8.37;;;;;;;;;;5095090;28;20966;-66
2022/03/10 12:53:33;;;;;;;11.80;7.40;;;;;;;;;;5094992;28;20437;-67
2022/03/10 12:56:00;;;;;;;10.70;8.33;;;;;;;;;;5095318;28;20444;-68
2022/03/10 12:58:31;;;;;;;9.43;7.80;;;;;;;;;;5094965;28;20937;-67
2022/03/10 13:01:16;;;;;;;10.20;8.20;;;;;;;;;;5094996;28;20445;-67
2022/03/10 13:03:48;;;;;;;9.00;7.80;;;;;;;;;;5095191;28;20457;-67
2022/03/10 13:06:17;;;;;;;15.00;7.73;;;;;;;;;;5095006;28;20475;-68
2022/03/10 13:08:44;;;;;;;8.97;7.57;;;;;;;;;;5095273;28;20793;-67
2022/03/10 13:11:12;;;;;;;16.97;12.80;;;;;;;;;;5095055;28;20980;-68
2022/03/10 13:13:39;;;;;;;14.33;10.13;;;;;;;;;;5095388;28;21001;-67
2022/03/10 13:16:07;;;;;;;10.83;9.67;;;;;;;;;;5095204;28;20431;-67
2022/03/10 13:18:44;;;;;;;9.33;7.53;;;;;;;;;;5094957;28;20801;-66
2022/03/10 13:21:12;;;;;;;9.87;7.87;;;;;;;;;;5094965;28;20439;-67
2022/03/10 13:23:40;;;;;;;9.57;7.73;;;;;;;;;;5094963;28;20440;-67
2022/03/10 13:26:08;;;;;;;8.13;7.33;;;;;;;;;;5094401;28;20988;-68
2022/03/10 13:28:36;;;;;;;8.20;7.40;;;;;;;;;;5094459;28;21003;-67
2022/03/10 13:31:06;;;;;;;9.20;7.20;;;;;;;;;;5094862;28;20480;-67
2022/03/10 13:33:34;;;;;;;7.63;6.80;;;;;;;;;;5094672;28;20446;-68
2022/03/10 13:36:02;;;;;;;10.07;6.30;;;;;;;;;;5094158;28;20444;-67
2022/03/10 13:38:30;;;;;;;8.63;7.07;;;;;;;;;;5094468;28;20875;-67
2022/03/10 13:41:02;;;;;;;8.10;6.80;;;;;;;;;;5094298;28;21077;-67
2022/03/10 13:43:31;;;;;;;7.27;6.40;;;;;;;;;;5094218;28;20443;-67
2022/03/10 13:46:09;;;;;;;10.00;6.00;;;;;;;;;;5094243;28;20479;-68
2022/03/10 13:48:36;;;;;;;8.30;5.90;;;;;;;;;;5094982;28;20440;-66
2022/03/10 13:51:06;;;;;;;8.60;6.07;;;;;;;;;;5094225;28;20523;-67
2022/03/10 13:53:33;;;;;;;12.93;6.27;;;;;;;;;;5094119;28;20901;-67
2022/03/10 13:56:02;;;;;;;8.13;6.37;;;;;;;;;;5093982;28;20443;-67
2022/03/10 13:58:30;;;;;;;10.17;7.27;;;;;;;;;;5093742;28;20472;-68
2022/03/10 14:01:04;;;;;;;10.00;6.17;;;;;;;;;;5094068;28;20436;-68
2022/03/10 14:03:31;;;;;;;7.73;5.63;;;;;;;;;;5094149;28;20792;-69
2022/03/10 14:06:01;;;;;;;6.10;5.50;;;;;;;;;;5093960;28;20486;-68
2022/03/10 14:08:29;;;;;;;7.33;5.53;;;;;;;;;;5094684;28;20866;-68
2022/03/10 14:11:08;;;;;;;10.33;5.40;;;;;;;;;;5093550;28;20563;-69
2022/03/10 14:13:39;;;;;;;5.57;5.03;;;;;;;;;;5093933;28;20439;-69
2022/03/10 14:16:07;;;;;;;9.50;4.83;;;;;;;;;;5094347;28;20520;-69
2022/03/10 14:18:36;;;;;;;7.10;4.50;;;;;;;;;;5094143;28;20785;-68
2022/03/10 14:21:04;;;;;;;8.13;5.50;;;;;;;;;;5093775;28;20519;-68
2022/03/10 14:23:32;;;;;;;6.50;4.70;;;;;;;;;;5093877;28;20444;-68
2022/03/10 14:26:00;;;;;;;4.90;4.43;;;;;;;;;;5093601;28;20567;-67
2022/03/10 14:28:34;;;;;;;7.00;4.57;;;;;;;;;;5094072;28;20876;-69
2022/03/10 14:31:05;;;;;;;4.60;4.10;;;;;;;;;;5093982;28;20433;-69
2022/03/10 14:33:32;;;;;;;7.43;5.20;;;;;;;;;;5092381;28;20479;-69